sensor_id;sensor_type;location;lat;lon;timestamp;P1;durP1;ratioP1;P2;durP2;ratioP2
48205;SDS011;33995;48.202;16.260;2022-12-24T00:01:36;21.60;;;19.33;;
48205;SDS011;33995;48.202;16.260;2022-12-24T00:04:03;20.20;;;18.00;;
48205;SDS011;33995;48.202;16.260;2022-12-24T00:06:34;13.30;;;11.90;;
48205;SDS011;33995;48.202;16.260;2022-12-24T00:09:02;5.33;;;4.00;;
48205;SDS011;33995;48.202;16.260;2022-12-24T00:11:31;4.43;;;3.70;;
48205;SDS011;33995;48.202;16.260;2022-12-24T00:13:58;2.93;;;2.67;;
48205;SDS011;33995;48.202;16.260;2022-12-24T00:16:28;2.67;;;2.20;;
48205;SDS011;33995;48.202;16.260;2022-12-24T00:18:57;2.97;;;2.00;;
48205;SDS011;33995;48.202;16.260;2022-12-24T00:21:26;1.70;;;1.50;;
48205;SDS011;33995;48.202;16.260;2022-12-24T00:23:57;1.97;;;1.60;;
48205;SDS011;33995;48.202;16.260;2022-12-24T00:26:26;1.57;;;1.40;;
48205;SDS011;33995;48.202;16.260;2022-12-24T00:28:55;1.80;;;1.30;;
48205;SDS011;33995;48.202;16.260;2022-12-24T00:31:22;1.90;;;1.63;;
48205;SDS011;33995;48.202;16.260;2022-12-24T00:33:50;1.57;;;1.30;;
48205;SDS011;33995;48.202;16.260;2022-12-24T00:36:19;1.30;;;1.20;;
48205;SDS011;33995;48.202;16.260;2022-12-24T00:38:47;2.80;;;1.23;;
48205;SDS011;33995;48.202;16.260;2022-12-24T00:41:17;2.10;;;1.20;;
48205;SDS011;33995;48.202;16.260;2022-12-24T00:44:00;1.00;;;0.90;;
48205;SDS011;33995;48.202;16.260;2022-12-24T00:46:31;0.90;;;0.90;;
48205;SDS011;33995;48.202;16.260;2022-12-24T00:49:03;1.40;;;1.00;;
48205;SDS011;33995;48.202;16.260;2022-12-24T00:51:35;1.10;;;1.00;;
48205;SDS011;33995;48.202;16.260;2022-12-24T00:54:03;1.20;;;0.70;;
48205;SDS011;33995;48.202;16.260;2022-12-24T00:56:31;1.40;;;0.83;;
48205;SDS011;33995;48.202;16.260;2022-12-24T00:59:02;1.77;;;0.80;;
48205;SDS011;33995;48.202;16.260;2022-12-24T01:01:45;0.90;;;0.70;;
48205;SDS011;33995;48.202;16.260;2022-12-24T01:04:13;1.00;;;0.70;;
48205;SDS011;33995;48.202;16.260;2022-12-24T01:07:02;0.93;;;0.80;;
48205;SDS011;33995;48.202;16.260;2022-12-24T01:09:34;0.67;;;0.50;;
48205;SDS011;33995;48.202;16.260;2022-12-24T01:12:01;0.93;;;0.70;;
48205;SDS011;33995;48.202;16.260;2022-12-24T01:14:30;2.07;;;0.90;;
48205;SDS011;33995;48.202;16.260;2022-12-24T01:16:58;0.80;;;0.53;;
48205;SDS011;33995;48.202;16.260;2022-12-24T01:19:25;2.30;;;0.60;;
48205;SDS011;33995;48.202;16.260;2022-12-24T01:21:54;1.33;;;0.77;;
48205;SDS011;33995;48.202;16.260;2022-12-24T01:24:23;1.30;;;0.63;;
48205;SDS011;33995;48.202;16.260;2022-12-24T01:26:50;0.80;;;0.67;;
48205;SDS011;33995;48.202;16.260;2022-12-24T01:29:22;0.93;;;0.80;;
48205;SDS011;33995;48.202;16.260;2022-12-24T01:31:49;1.00;;;0.70;;
48205;SDS011;33995;48.202;16.260;2022-12-24T01:34:21;0.70;;;0.70;;
48205;SDS011;33995;48.202;16.260;2022-12-24T01:36:51;2.03;;;1.00;;
48205;SDS011;33995;48.202;16.260;2022-12-24T01:39:20;1.53;;;0.87;;
48205;SDS011;33995;48.202;16.260;2022-12-24T01:41:48;1.13;;;0.63;;
48205;SDS011;33995;48.202;16.260;2022-12-24T01:44:38;0.73;;;0.50;;
48205;SDS011;33995;48.202;16.260;2022-12-24T01:47:15;0.80;;;0.80;;
48205;SDS011;33995;48.202;16.260;2022-12-24T01:49:55;0.70;;;0.70;;
48205;SDS011;33995;48.202;16.260;2022-12-24T01:52:29;0.50;;;0.50;;
48205;SDS011;33995;48.202;16.260;2022-12-24T01:55:02;1.60;;;0.60;;
48205;SDS011;33995;48.202;16.260;2022-12-24T01:57:58;0.73;;;0.50;;
48205;SDS011;33995;48.202;16.260;2022-12-24T02:00:28;0.80;;;0.40;;
48205;SDS011;33995;48.202;16.260;2022-12-24T02:02:55;0.50;;;0.47;;
48205;SDS011;33995;48.202;16.260;2022-12-24T02:05:52;0.27;;;0.20;;
48205;SDS011;33995;48.202;16.260;2022-12-24T02:08:23;1.50;;;0.40;;
48205;SDS011;33995;48.202;16.260;2022-12-24T02:11:11;1.03;;;0.40;;
48205;SDS011;33995;48.202;16.260;2022-12-24T02:14:00;0.50;;;0.30;;
48205;SDS011;33995;48.202;16.260;2022-12-24T02:22:54;0.30;;;0.30;;
48205;SDS011;33995;48.202;16.260;2022-12-24T02:31:50;1.33;;;0.40;;
48205;SDS011;33995;48.202;16.260;2022-12-24T02:34:35;0.20;;;0.20;;
48205;SDS011;33995;48.202;16.260;2022-12-24T02:40:25;2.37;;;0.40;;
48205;SDS011;33995;48.202;16.260;2022-12-24T02:42:55;0.40;;;0.30;;
48205;SDS011;33995;48.202;16.260;2022-12-24T02:45:30;0.20;;;0.10;;
48205;SDS011;33995;48.202;16.260;2022-12-24T02:48:00;0.40;;;0.40;;
48205;SDS011;33995;48.202;16.260;2022-12-24T02:50:28;1.00;;;0.57;;
48205;SDS011;33995;48.202;16.260;2022-12-24T02:53:07;0.37;;;0.37;;
48205;SDS011;33995;48.202;16.260;2022-12-24T03:01:37;0.73;;;0.40;;
48205;SDS011;33995;48.202;16.260;2022-12-24T03:04:33;1.13;;;0.40;;
48205;SDS011;33995;48.202;16.260;2022-12-24T03:09:53;1.40;;;0.50;;
48205;SDS011;33995;48.202;16.260;2022-12-24T03:12:38;0.50;;;0.50;;
48205;SDS011;33995;48.202;16.260;2022-12-24T03:15:17;0.77;;;0.47;;
48205;SDS011;33995;48.202;16.260;2022-12-24T03:18:01;0.50;;;0.50;;
48205;SDS011;33995;48.202;16.260;2022-12-24T03:20:43;0.67;;;0.60;;
48205;SDS011;33995;48.202;16.260;2022-12-24T03:23:13;1.13;;;0.70;;
48205;SDS011;33995;48.202;16.260;2022-12-24T03:25:44;0.83;;;0.77;;
48205;SDS011;33995;48.202;16.260;2022-12-24T03:28:15;3.63;;;0.93;;
48205;SDS011;33995;48.202;16.260;2022-12-24T03:30:45;1.40;;;1.10;;
48205;SDS011;33995;48.202;16.260;2022-12-24T03:33:22;1.40;;;1.20;;
48205;SDS011;33995;48.202;16.260;2022-12-24T03:35:50;1.83;;;1.00;;
48205;SDS011;33995;48.202;16.260;2022-12-24T03:38:21;1.30;;;1.20;;
48205;SDS011;33995;48.202;16.260;2022-12-24T03:40:50;1.43;;;0.80;;
48205;SDS011;33995;48.202;16.260;2022-12-24T03:43:20;0.80;;;0.77;;
48205;SDS011;33995;48.202;16.260;2022-12-24T03:45:48;1.20;;;1.00;;
48205;SDS011;33995;48.202;16.260;2022-12-24T03:48:32;1.97;;;1.00;;
48205;SDS011;33995;48.202;16.260;2022-12-24T03:51:02;2.00;;;1.03;;
48205;SDS011;33995;48.202;16.260;2022-12-24T03:53:31;1.30;;;1.10;;
48205;SDS011;33995;48.202;16.260;2022-12-24T03:55:59;1.97;;;1.00;;
48205;SDS011;33995;48.202;16.260;2022-12-24T03:58:41;1.73;;;1.20;;
48205;SDS011;33995;48.202;16.260;2022-12-24T04:01:10;1.73;;;0.80;;
48205;SDS011;33995;48.202;16.260;2022-12-24T04:03:40;1.30;;;1.10;;
48205;SDS011;33995;48.202;16.260;2022-12-24T04:06:09;1.63;;;1.17;;
48205;SDS011;33995;48.202;16.260;2022-12-24T04:08:39;1.70;;;1.10;;
48205;SDS011;33995;48.202;16.260;2022-12-24T04:11:09;1.00;;;0.90;;
48205;SDS011;33995;48.202;16.260;2022-12-24T04:13:38;1.27;;;1.07;;
48205;SDS011;33995;48.202;16.260;2022-12-24T04:16:07;1.37;;;1.00;;
48205;SDS011;33995;48.202;16.260;2022-12-24T04:18:40;1.30;;;1.00;;
48205;SDS011;33995;48.202;16.260;2022-12-24T04:21:10;0.83;;;0.73;;
48205;SDS011;33995;48.202;16.260;2022-12-24T04:23:37;1.37;;;0.80;;
48205;SDS011;33995;48.202;16.260;2022-12-24T04:26:11;0.60;;;0.60;;
48205;SDS011;33995;48.202;16.260;2022-12-24T04:28:39;1.30;;;0.73;;
48205;SDS011;33995;48.202;16.260;2022-12-24T04:31:10;0.93;;;0.70;;
48205;SDS011;33995;48.202;16.260;2022-12-24T04:33:41;1.20;;;0.60;;
48205;SDS011;33995;48.202;16.260;2022-12-24T04:36:11;0.67;;;0.67;;
48205;SDS011;33995;48.202;16.260;2022-12-24T04:38:44;1.07;;;0.70;;
48205;SDS011;33995;48.202;16.260;2022-12-24T04:41:26;0.87;;;0.77;;
48205;SDS011;33995;48.202;16.260;2022-12-24T04:43:57;1.00;;;0.60;;
48205;SDS011;33995;48.202;16.260;2022-12-24T04:46:26;0.57;;;0.53;;
48205;SDS011;33995;48.202;16.260;2022-12-24T04:48:58;1.10;;;0.70;;
48205;SDS011;33995;48.202;16.260;2022-12-24T04:51:28;0.70;;;0.63;;
48205;SDS011;33995;48.202;16.260;2022-12-24T04:53:57;0.90;;;0.57;;
48205;SDS011;33995;48.202;16.260;2022-12-24T04:56:25;0.60;;;0.60;;
48205;SDS011;33995;48.202;16.260;2022-12-24T04:58:58;1.07;;;0.50;;
48205;SDS011;33995;48.202;16.260;2022-12-24T05:01:34;0.63;;;0.53;;
48205;SDS011;33995;48.202;16.260;2022-12-24T05:04:03;1.33;;;0.70;;
48205;SDS011;33995;48.202;16.260;2022-12-24T05:06:35;1.10;;;0.50;;
48205;SDS011;33995;48.202;16.260;2022-12-24T05:09:04;1.43;;;1.13;;
48205;SDS011;33995;48.202;16.260;2022-12-24T05:11:32;0.87;;;0.67;;
48205;SDS011;33995;48.202;16.260;2022-12-24T05:14:01;1.23;;;0.77;;
48205;SDS011;33995;48.202;16.260;2022-12-24T05:16:31;1.57;;;0.80;;
48205;SDS011;33995;48.202;16.260;2022-12-24T05:18:59;0.93;;;0.77;;
48205;SDS011;33995;48.202;16.260;2022-12-24T05:21:31;2.13;;;0.63;;
48205;SDS011;33995;48.202;16.260;2022-12-24T05:23:58;1.43;;;0.80;;
48205;SDS011;33995;48.202;16.260;2022-12-24T05:26:45;1.43;;;0.77;;
48205;SDS011;33995;48.202;16.260;2022-12-24T05:29:16;2.30;;;0.93;;
48205;SDS011;33995;48.202;16.260;2022-12-24T05:31:46;1.00;;;0.70;;
48205;SDS011;33995;48.202;16.260;2022-12-24T05:34:17;1.77;;;0.70;;
48205;SDS011;33995;48.202;16.260;2022-12-24T05:36:44;2.40;;;0.97;;
48205;SDS011;33995;48.202;16.260;2022-12-24T05:39:13;2.20;;;1.00;;
48205;SDS011;33995;48.202;16.260;2022-12-24T05:41:44;1.50;;;0.77;;
48205;SDS011;33995;48.202;16.260;2022-12-24T05:44:15;2.10;;;0.97;;
48205;SDS011;33995;48.202;16.260;2022-12-24T05:46:44;1.93;;;1.00;;
48205;SDS011;33995;48.202;16.260;2022-12-24T05:49:13;1.10;;;0.87;;
48205;SDS011;33995;48.202;16.260;2022-12-24T05:51:41;2.00;;;1.03;;
48205;SDS011;33995;48.202;16.260;2022-12-24T05:54:09;1.40;;;0.80;;
48205;SDS011;33995;48.202;16.260;2022-12-24T05:56:37;1.60;;;0.70;;
48205;SDS011;33995;48.202;16.260;2022-12-24T05:59:04;2.67;;;0.87;;
48205;SDS011;33995;48.202;16.260;2022-12-24T06:01:31;1.60;;;1.30;;
48205;SDS011;33995;48.202;16.260;2022-12-24T06:04:00;2.10;;;0.90;;
48205;SDS011;33995;48.202;16.260;2022-12-24T06:06:31;1.57;;;0.90;;
48205;SDS011;33995;48.202;16.260;2022-12-24T06:09:00;1.17;;;0.80;;
48205;SDS011;33995;48.202;16.260;2022-12-24T06:11:29;1.87;;;0.90;;
48205;SDS011;33995;48.202;16.260;2022-12-24T06:14:00;1.83;;;0.90;;
48205;SDS011;33995;48.202;16.260;2022-12-24T06:16:27;1.87;;;1.00;;
48205;SDS011;33995;48.202;16.260;2022-12-24T06:18:54;1.47;;;0.80;;
48205;SDS011;33995;48.202;16.260;2022-12-24T06:21:22;1.00;;;0.60;;
48205;SDS011;33995;48.202;16.260;2022-12-24T06:23:52;1.60;;;0.87;;
48205;SDS011;33995;48.202;16.260;2022-12-24T06:26:21;2.80;;;0.90;;
48205;SDS011;33995;48.202;16.260;2022-12-24T06:28:50;1.60;;;0.70;;
48205;SDS011;33995;48.202;16.260;2022-12-24T06:31:23;2.70;;;0.97;;
48205;SDS011;33995;48.202;16.260;2022-12-24T06:33:50;3.37;;;1.00;;
48205;SDS011;33995;48.202;16.260;2022-12-24T06:36:27;1.97;;;1.00;;
48205;SDS011;33995;48.202;16.260;2022-12-24T06:38:55;1.13;;;0.70;;
48205;SDS011;33995;48.202;16.260;2022-12-24T06:41:26;2.17;;;0.90;;
48205;SDS011;33995;48.202;16.260;2022-12-24T06:43:54;1.10;;;0.87;;
48205;SDS011;33995;48.202;16.260;2022-12-24T06:46:22;2.20;;;0.83;;
48205;SDS011;33995;48.202;16.260;2022-12-24T06:48:49;1.27;;;0.80;;
48205;SDS011;33995;48.202;16.260;2022-12-24T06:51:17;2.10;;;0.90;;
48205;SDS011;33995;48.202;16.260;2022-12-24T06:53:49;1.40;;;0.90;;
48205;SDS011;33995;48.202;16.260;2022-12-24T06:56:33;1.70;;;1.00;;
48205;SDS011;33995;48.202;16.260;2022-12-24T06:59:04;1.30;;;0.80;;
48205;SDS011;33995;48.202;16.260;2022-12-24T07:01:33;1.30;;;0.80;;
48205;SDS011;33995;48.202;16.260;2022-12-24T07:04:01;2.43;;;1.07;;
48205;SDS011;33995;48.202;16.260;2022-12-24T07:06:29;1.53;;;1.00;;
48205;SDS011;33995;48.202;16.260;2022-12-24T07:08:58;1.97;;;0.90;;
48205;SDS011;33995;48.202;16.260;2022-12-24T07:11:28;2.23;;;1.33;;
48205;SDS011;33995;48.202;16.260;2022-12-24T07:13:55;2.37;;;1.27;;
48205;SDS011;33995;48.202;16.260;2022-12-24T07:16:32;2.57;;;1.10;;
48205;SDS011;33995;48.202;16.260;2022-12-24T07:19:03;2.07;;;1.00;;
48205;SDS011;33995;48.202;16.260;2022-12-24T07:21:31;0.97;;;0.67;;
48205;SDS011;33995;48.202;16.260;2022-12-24T07:24:00;3.10;;;1.10;;
48205;SDS011;33995;48.202;16.260;2022-12-24T07:26:31;2.20;;;1.20;;
48205;SDS011;33995;48.202;16.260;2022-12-24T07:29:02;2.60;;;1.20;;
48205;SDS011;33995;48.202;16.260;2022-12-24T07:31:32;1.80;;;1.17;;
48205;SDS011;33995;48.202;16.260;2022-12-24T07:34:08;2.00;;;0.90;;
48205;SDS011;33995;48.202;16.260;2022-12-24T07:36:36;1.80;;;0.80;;
48205;SDS011;33995;48.202;16.260;2022-12-24T07:39:04;1.70;;;1.00;;
48205;SDS011;33995;48.202;16.260;2022-12-24T07:41:35;2.77;;;1.20;;
48205;SDS011;33995;48.202;16.260;2022-12-24T07:44:11;2.30;;;1.20;;
48205;SDS011;33995;48.202;16.260;2022-12-24T07:46:40;2.27;;;1.30;;
48205;SDS011;33995;48.202;16.260;2022-12-24T07:49:11;2.70;;;1.27;;
48205;SDS011;33995;48.202;16.260;2022-12-24T07:51:39;3.20;;;1.20;;
48205;SDS011;33995;48.202;16.260;2022-12-24T07:54:07;3.40;;;1.50;;
48205;SDS011;33995;48.202;16.260;2022-12-24T07:56:35;3.40;;;1.20;;
48205;SDS011;33995;48.202;16.260;2022-12-24T07:59:03;2.23;;;1.10;;
48205;SDS011;33995;48.202;16.260;2022-12-24T08:01:32;2.87;;;1.30;;
48205;SDS011;33995;48.202;16.260;2022-12-24T08:03:59;2.50;;;1.30;;
48205;SDS011;33995;48.202;16.260;2022-12-24T08:06:30;3.40;;;1.27;;
48205;SDS011;33995;48.202;16.260;2022-12-24T08:08:59;3.73;;;1.50;;
48205;SDS011;33995;48.202;16.260;2022-12-24T08:11:27;1.07;;;0.90;;
48205;SDS011;33995;48.202;16.260;2022-12-24T08:13:58;3.63;;;1.47;;
48205;SDS011;33995;48.202;16.260;2022-12-24T08:16:25;2.73;;;1.30;;
48205;SDS011;33995;48.202;16.260;2022-12-24T08:18:58;2.97;;;1.20;;
48205;SDS011;33995;48.202;16.260;2022-12-24T08:21:26;2.60;;;1.20;;
48205;SDS011;33995;48.202;16.260;2022-12-24T08:23:55;1.77;;;1.20;;
48205;SDS011;33995;48.202;16.260;2022-12-24T08:26:23;2.53;;;1.33;;
48205;SDS011;33995;48.202;16.260;2022-12-24T08:28:55;1.33;;;1.13;;
48205;SDS011;33995;48.202;16.260;2022-12-24T08:31:25;2.73;;;1.70;;
48205;SDS011;33995;48.202;16.260;2022-12-24T08:33:53;2.40;;;1.60;;
48205;SDS011;33995;48.202;16.260;2022-12-24T08:36:21;2.17;;;1.40;;
48205;SDS011;33995;48.202;16.260;2022-12-24T08:38:51;2.20;;;1.37;;
48205;SDS011;33995;48.202;16.260;2022-12-24T08:41:19;2.10;;;1.43;;
48205;SDS011;33995;48.202;16.260;2022-12-24T08:43:47;2.70;;;1.50;;
48205;SDS011;33995;48.202;16.260;2022-12-24T08:46:16;3.33;;;1.50;;
48205;SDS011;33995;48.202;16.260;2022-12-24T08:48:44;2.40;;;1.30;;
48205;SDS011;33995;48.202;16.260;2022-12-24T08:51:21;2.17;;;1.20;;
48205;SDS011;33995;48.202;16.260;2022-12-24T08:53:49;2.30;;;1.27;;
48205;SDS011;33995;48.202;16.260;2022-12-24T08:56:17;3.30;;;1.50;;
48205;SDS011;33995;48.202;16.260;2022-12-24T08:58:46;2.27;;;1.43;;
48205;SDS011;33995;48.202;16.260;2022-12-24T09:01:16;1.60;;;1.30;;
48205;SDS011;33995;48.202;16.260;2022-12-24T09:03:47;3.00;;;1.30;;
48205;SDS011;33995;48.202;16.260;2022-12-24T09:06:15;2.73;;;1.50;;
48205;SDS011;33995;48.202;16.260;2022-12-24T09:08:45;1.83;;;1.40;;
48205;SDS011;33995;48.202;16.260;2022-12-24T09:11:15;2.10;;;1.30;;
48205;SDS011;33995;48.202;16.260;2022-12-24T09:13:44;2.97;;;1.50;;
48205;SDS011;33995;48.202;16.260;2022-12-24T09:16:15;3.10;;;1.70;;
48205;SDS011;33995;48.202;16.260;2022-12-24T09:18:43;3.63;;;1.80;;
48205;SDS011;33995;48.202;16.260;2022-12-24T09:21:12;2.60;;;1.50;;
48205;SDS011;33995;48.202;16.260;2022-12-24T09:23:43;2.93;;;1.60;;
48205;SDS011;33995;48.202;16.260;2022-12-24T09:26:16;1.83;;;1.30;;
48205;SDS011;33995;48.202;16.260;2022-12-24T09:28:46;1.90;;;1.30;;
48205;SDS011;33995;48.202;16.260;2022-12-24T09:31:15;3.03;;;1.50;;
48205;SDS011;33995;48.202;16.260;2022-12-24T09:33:46;2.80;;;1.40;;
48205;SDS011;33995;48.202;16.260;2022-12-24T09:36:15;2.03;;;1.27;;
48205;SDS011;33995;48.202;16.260;2022-12-24T09:38:45;3.83;;;1.50;;
48205;SDS011;33995;48.202;16.260;2022-12-24T09:46:54;2.07;;;1.30;;
48205;SDS011;33995;48.202;16.260;2022-12-24T09:49:41;4.80;;;1.60;;
48205;SDS011;33995;48.202;16.260;2022-12-24T09:52:16;2.77;;;1.50;;
48205;SDS011;33995;48.202;16.260;2022-12-24T09:55:06;3.10;;;1.60;;
48205;SDS011;33995;48.202;16.260;2022-12-24T09:57:44;2.73;;;1.43;;
48205;SDS011;33995;48.202;16.260;2022-12-24T10:00:27;3.30;;;1.37;;
48205;SDS011;33995;48.202;16.260;2022-12-24T10:02:56;2.97;;;1.70;;
48205;SDS011;33995;48.202;16.260;2022-12-24T10:05:36;3.37;;;1.53;;
48205;SDS011;33995;48.202;16.260;2022-12-24T10:11:08;2.90;;;1.60;;
48205;SDS011;33995;48.202;16.260;2022-12-24T10:20:02;3.07;;;1.77;;
48205;SDS011;33995;48.202;16.260;2022-12-24T10:31:25;2.53;;;1.60;;
48205;SDS011;33995;48.202;16.260;2022-12-24T10:34:02;3.63;;;1.83;;
48205;SDS011;33995;48.202;16.260;2022-12-24T10:36:40;3.33;;;1.63;;
48205;SDS011;33995;48.202;16.260;2022-12-24T10:39:20;4.23;;;1.80;;
48205;SDS011;33995;48.202;16.260;2022-12-24T10:41:51;3.23;;;1.67;;
48205;SDS011;33995;48.202;16.260;2022-12-24T10:44:25;3.67;;;1.73;;
48205;SDS011;33995;48.202;16.260;2022-12-24T10:46:56;4.77;;;1.87;;
48205;SDS011;33995;48.202;16.260;2022-12-24T10:52:18;3.77;;;1.60;;
48205;SDS011;33995;48.202;16.260;2022-12-24T10:55:05;3.77;;;1.60;;
48205;SDS011;33995;48.202;16.260;2022-12-24T10:57:41;3.50;;;1.40;;
48205;SDS011;33995;48.202;16.260;2022-12-24T11:00:21;2.80;;;1.63;;
48205;SDS011;33995;48.202;16.260;2022-12-24T11:05:45;3.23;;;1.87;;
48205;SDS011;33995;48.202;16.260;2022-12-24T11:08:17;3.97;;;1.70;;
48205;SDS011;33995;48.202;16.260;2022-12-24T11:10:55;3.43;;;1.80;;
48205;SDS011;33995;48.202;16.260;2022-12-24T11:13:25;3.43;;;1.90;;
48205;SDS011;33995;48.202;16.260;2022-12-24T11:19:04;2.47;;;1.60;;
48205;SDS011;33995;48.202;16.260;2022-12-24T11:21:42;2.47;;;1.80;;
48205;SDS011;33995;48.202;16.260;2022-12-24T11:26:42;4.17;;;1.90;;
48205;SDS011;33995;48.202;16.260;2022-12-24T11:29:14;3.93;;;2.10;;
48205;SDS011;33995;48.202;16.260;2022-12-24T11:31:51;3.27;;;1.90;;
48205;SDS011;33995;48.202;16.260;2022-12-24T11:34:41;4.23;;;1.90;;
48205;SDS011;33995;48.202;16.260;2022-12-24T11:37:22;3.67;;;2.00;;
48205;SDS011;33995;48.202;16.260;2022-12-24T11:39:52;3.73;;;2.00;;
48205;SDS011;33995;48.202;16.260;2022-12-24T11:42:25;5.07;;;2.10;;
48205;SDS011;33995;48.202;16.260;2022-12-24T11:44:55;3.57;;;1.87;;
48205;SDS011;33995;48.202;16.260;2022-12-24T11:47:37;3.40;;;2.13;;
48205;SDS011;33995;48.202;16.260;2022-12-24T11:55:44;4.00;;;2.20;;
48205;SDS011;33995;48.202;16.260;2022-12-24T12:04:15;3.60;;;2.00;;
48205;SDS011;33995;48.202;16.260;2022-12-24T12:06:51;2.50;;;1.80;;
48205;SDS011;33995;48.202;16.260;2022-12-24T12:09:41;2.93;;;1.90;;
48205;SDS011;33995;48.202;16.260;2022-12-24T12:12:23;3.10;;;1.80;;
48205;SDS011;33995;48.202;16.260;2022-12-24T12:15:17;3.90;;;1.43;;
48205;SDS011;33995;48.202;16.260;2022-12-24T12:18:11;3.07;;;1.70;;
48205;SDS011;33995;48.202;16.260;2022-12-24T12:20:51;4.03;;;1.70;;
48205;SDS011;33995;48.202;16.260;2022-12-24T12:23:29;2.77;;;1.63;;
48205;SDS011;33995;48.202;16.260;2022-12-24T12:26:00;2.03;;;1.30;;
48205;SDS011;33995;48.202;16.260;2022-12-24T12:29:19;3.23;;;1.60;;
48205;SDS011;33995;48.202;16.260;2022-12-24T12:31:56;3.00;;;1.53;;
48205;SDS011;33995;48.202;16.260;2022-12-24T12:34:38;2.73;;;1.30;;
48205;SDS011;33995;48.202;16.260;2022-12-24T12:37:17;3.37;;;1.50;;
48205;SDS011;33995;48.202;16.260;2022-12-24T12:40:15;3.37;;;1.50;;
48205;SDS011;33995;48.202;16.260;2022-12-24T12:42:55;2.67;;;1.57;;
48205;SDS011;33995;48.202;16.260;2022-12-24T12:57:50;1.97;;;0.90;;
48205;SDS011;33995;48.202;16.260;2022-12-24T13:00:22;2.33;;;1.23;;
48205;SDS011;33995;48.202;16.260;2022-12-24T13:09:01;1.60;;;0.93;;
48205;SDS011;33995;48.202;16.260;2022-12-24T13:20:52;2.53;;;1.30;;
48205;SDS011;33995;48.202;16.260;2022-12-24T13:23:21;1.97;;;1.00;;
48205;SDS011;33995;48.202;16.260;2022-12-24T13:25:53;2.07;;;1.30;;
48205;SDS011;33995;48.202;16.260;2022-12-24T13:28:31;2.60;;;1.20;;
48205;SDS011;33995;48.202;16.260;2022-12-24T13:31:25;2.93;;;1.50;;
48205;SDS011;33995;48.202;16.260;2022-12-24T13:33:57;3.13;;;1.57;;
48205;SDS011;33995;48.202;16.260;2022-12-24T13:36:58;2.87;;;1.30;;
48205;SDS011;33995;48.202;16.260;2022-12-24T13:39:59;2.20;;;1.40;;
48205;SDS011;33995;48.202;16.260;2022-12-24T13:48:01;2.33;;;1.17;;
48205;SDS011;33995;48.202;16.260;2022-12-24T13:50:48;1.70;;;1.17;;
48205;SDS011;33995;48.202;16.260;2022-12-24T13:53:33;2.23;;;1.23;;
48205;SDS011;33995;48.202;16.260;2022-12-24T13:56:07;2.10;;;1.40;;
48205;SDS011;33995;48.202;16.260;2022-12-24T13:58:39;2.53;;;1.50;;
48205;SDS011;33995;48.202;16.260;2022-12-24T14:01:17;1.70;;;1.10;;
48205;SDS011;33995;48.202;16.260;2022-12-24T14:03:52;2.13;;;1.20;;
48205;SDS011;33995;48.202;16.260;2022-12-24T14:06:26;2.73;;;1.40;;
48205;SDS011;33995;48.202;16.260;2022-12-24T14:09:11;3.03;;;1.20;;
48205;SDS011;33995;48.202;16.260;2022-12-24T14:17:00;2.10;;;1.50;;
48205;SDS011;33995;48.202;16.260;2022-12-24T14:19:41;2.27;;;1.30;;
48205;SDS011;33995;48.202;16.260;2022-12-24T14:25:00;2.13;;;1.30;;
48205;SDS011;33995;48.202;16.260;2022-12-24T14:27:58;3.00;;;1.70;;
48205;SDS011;33995;48.202;16.260;2022-12-24T14:30:39;2.57;;;1.70;;
48205;SDS011;33995;48.202;16.260;2022-12-24T14:33:25;2.23;;;1.70;;
48205;SDS011;33995;48.202;16.260;2022-12-24T14:35:56;2.00;;;1.57;;
48205;SDS011;33995;48.202;16.260;2022-12-24T14:38:25;1.90;;;1.67;;
48205;SDS011;33995;48.202;16.260;2022-12-24T14:40:55;2.80;;;1.70;;
48205;SDS011;33995;48.202;16.260;2022-12-24T14:43:54;3.33;;;1.80;;
48205;SDS011;33995;48.202;16.260;2022-12-24T14:46:37;3.53;;;1.90;;
48205;SDS011;33995;48.202;16.260;2022-12-24T14:54:32;2.33;;;1.70;;
48205;SDS011;33995;48.202;16.260;2022-12-24T15:02:39;2.53;;;1.73;;
48205;SDS011;33995;48.202;16.260;2022-12-24T15:07:38;3.03;;;1.83;;
48205;SDS011;33995;48.202;16.260;2022-12-24T15:10:31;3.17;;;1.60;;
48205;SDS011;33995;48.202;16.260;2022-12-24T15:13:52;4.87;;;1.90;;
48205;SDS011;33995;48.202;16.260;2022-12-24T15:16:13;3.23;;;1.80;;
48205;SDS011;33995;48.202;16.260;2022-12-24T15:18:49;3.53;;;1.83;;
48205;SDS011;33995;48.202;16.260;2022-12-24T15:23:58;2.83;;;1.70;;
48205;SDS011;33995;48.202;16.260;2022-12-24T15:26:33;4.00;;;2.00;;
48205;SDS011;33995;48.202;16.260;2022-12-24T15:29:12;2.97;;;2.10;;
48205;SDS011;33995;48.202;16.260;2022-12-24T15:31:50;4.87;;;2.33;;
48205;SDS011;33995;48.202;16.260;2022-12-24T15:34:28;4.37;;;2.20;;
48205;SDS011;33995;48.202;16.260;2022-12-24T15:37:05;3.23;;;2.10;;
48205;SDS011;33995;48.202;16.260;2022-12-24T15:39:42;4.53;;;2.20;;
48205;SDS011;33995;48.202;16.260;2022-12-24T15:42:10;3.77;;;2.00;;
48205;SDS011;33995;48.202;16.260;2022-12-24T15:47:30;3.97;;;2.00;;
48205;SDS011;33995;48.202;16.260;2022-12-24T15:50:08;3.37;;;2.17;;
48205;SDS011;33995;48.202;16.260;2022-12-24T15:52:42;3.67;;;2.00;;
48205;SDS011;33995;48.202;16.260;2022-12-24T15:58:16;4.57;;;2.20;;
48205;SDS011;33995;48.202;16.260;2022-12-24T16:03:55;4.93;;;2.20;;
48205;SDS011;33995;48.202;16.260;2022-12-24T16:06:26;4.90;;;2.20;;
48205;SDS011;33995;48.202;16.260;2022-12-24T16:08:53;4.33;;;1.90;;
48205;SDS011;33995;48.202;16.260;2022-12-24T16:11:25;3.67;;;2.33;;
48205;SDS011;33995;48.202;16.260;2022-12-24T16:14:10;3.87;;;2.10;;
48205;SDS011;33995;48.202;16.260;2022-12-24T16:16:45;5.03;;;2.30;;
48205;SDS011;33995;48.202;16.260;2022-12-24T16:19:20;4.13;;;1.83;;
48205;SDS011;33995;48.202;16.260;2022-12-24T16:22:02;4.50;;;2.10;;
48205;SDS011;33995;48.202;16.260;2022-12-24T16:24:49;5.00;;;2.10;;
48205;SDS011;33995;48.202;16.260;2022-12-24T16:27:20;4.60;;;2.00;;
48205;SDS011;33995;48.202;16.260;2022-12-24T16:29:47;3.43;;;2.10;;
48205;SDS011;33995;48.202;16.260;2022-12-24T16:32:25;4.07;;;2.17;;
48205;SDS011;33995;48.202;16.260;2022-12-24T16:34:59;2.90;;;2.10;;
48205;SDS011;33995;48.202;16.260;2022-12-24T16:37:28;7.10;;;2.60;;
48205;SDS011;33995;48.202;16.260;2022-12-24T16:39:55;5.63;;;2.13;;
48205;SDS011;33995;48.202;16.260;2022-12-24T16:42:22;4.27;;;2.10;;
48205;SDS011;33995;48.202;16.260;2022-12-24T16:45:08;3.80;;;2.00;;
48205;SDS011;33995;48.202;16.260;2022-12-24T16:47:36;4.43;;;2.27;;
48205;SDS011;33995;48.202;16.260;2022-12-24T16:50:13;5.87;;;2.30;;
48205;SDS011;33995;48.202;16.260;2022-12-24T16:52:43;3.90;;;2.27;;
48205;SDS011;33995;48.202;16.260;2022-12-24T16:55:14;3.80;;;2.27;;
48205;SDS011;33995;48.202;16.260;2022-12-24T16:57:41;5.30;;;2.60;;
48205;SDS011;33995;48.202;16.260;2022-12-24T17:02:47;3.03;;;1.90;;
48205;SDS011;33995;48.202;16.260;2022-12-24T17:05:16;4.43;;;2.37;;
48205;SDS011;33995;48.202;16.260;2022-12-24T17:07:45;3.33;;;2.17;;
48205;SDS011;33995;48.202;16.260;2022-12-24T17:10:17;3.87;;;2.20;;
48205;SDS011;33995;48.202;16.260;2022-12-24T17:12:48;4.27;;;2.37;;
48205;SDS011;33995;48.202;16.260;2022-12-24T17:15:15;3.97;;;2.20;;
48205;SDS011;33995;48.202;16.260;2022-12-24T17:17:43;4.67;;;2.23;;
48205;SDS011;33995;48.202;16.260;2022-12-24T17:20:11;5.60;;;2.67;;
48205;SDS011;33995;48.202;16.260;2022-12-24T17:22:45;3.30;;;2.30;;
48205;SDS011;33995;48.202;16.260;2022-12-24T17:25:15;5.73;;;2.60;;
48205;SDS011;33995;48.202;16.260;2022-12-24T17:27:43;3.37;;;2.40;;
48205;SDS011;33995;48.202;16.260;2022-12-24T17:30:13;4.53;;;2.33;;